createdAt,value
2022-08-20T00:01:56.229Z,5.20
2022-08-20T00:04:41.228Z,5.78
2022-08-20T00:07:26.361Z,4.82
2022-08-20T00:10:12.157Z,6.68
2022-08-20T00:12:57.641Z,5.82
2022-08-20T00:15:43.298Z,5.45
2022-08-20T00:18:29.886Z,5.80
2022-08-20T00:21:18.725Z,6.63
2022-08-20T00:24:05.529Z,6.75
2022-08-20T00:26:51.723Z,6.15
2022-08-20T00:29:37.909Z,12.70
2022-08-20T00:32:23.709Z,5.28
2022-08-20T00:35:09.313Z,6.78
2022-08-20T00:38:00.674Z,10.80
2022-08-20T00:40:56.309Z,9.88
2022-08-20T00:43:52.115Z,3.80
2022-08-20T00:46:38.378Z,10.52
2022-08-20T00:49:30.449Z,4.30
2022-08-20T00:52:19.494Z,9.60
2022-08-20T00:55:06.838Z,8.63
2022-08-20T00:58:01.688Z,15.77
2022-08-20T01:00:49.538Z,6.65
2022-08-20T01:03:34.700Z,6.47
2022-08-20T01:06:19.772Z,5.70
2022-08-20T01:09:06.894Z,9.77
2022-08-20T01:11:52.066Z,14.35
2022-08-20T01:14:43.985Z,5.85
2022-08-20T01:17:34.916Z,7.90
2022-08-20T01:20:24.993Z,8.50
2022-08-20T01:23:29.979Z,11.75
2022-08-20T01:26:35.947Z,7.63
2022-08-20T01:29:26.925Z,5.97
2022-08-20T01:32:11.958Z,7.10
2022-08-20T01:34:57.071Z,5.60
2022-08-20T01:37:42.512Z,5.18
2022-08-20T01:40:44.400Z,8.02
2022-08-20T01:43:29.444Z,10.02
2022-08-20T01:46:20.194Z,7.88
2022-08-20T01:49:22.874Z,9.30
2022-08-20T01:52:11.325Z,5.43
2022-08-20T01:54:56.957Z,7.80
2022-08-20T01:57:42.468Z,6.05
2022-08-20T02:00:28.118Z,12.05
2022-08-20T02:03:13.115Z,7.47
2022-08-20T02:06:02.042Z,5.93
2022-08-20T02:08:47.350Z,6.73
2022-08-20T02:11:33.825Z,7.63
2022-08-20T02:14:19.125Z,7.90
2022-08-20T02:17:04.285Z,8.73
2022-08-20T02:19:57.481Z,6.20
2022-08-20T02:22:50.385Z,8.30
2022-08-20T02:25:40.072Z,9.43
2022-08-20T02:28:25.101Z,8.07
2022-08-20T02:31:10.029Z,9.77
2022-08-20T02:34:21.909Z,10.23
2022-08-20T02:37:01.102Z,4.63
2022-08-20T02:39:46.747Z,13.88
2022-08-20T02:42:31.975Z,6.93
2022-08-20T02:45:18.970Z,8.45
2022-08-20T02:48:05.165Z,8.75
2022-08-20T02:50:54.612Z,6.03
2022-08-20T02:53:42.442Z,5.53
2022-08-20T02:56:27.477Z,6.78
2022-08-20T02:59:18.984Z,7.22
2022-08-20T03:02:05.006Z,8.68
2022-08-20T03:04:50.261Z,6.57
2022-08-20T03:07:51.300Z,6.63
2022-08-20T03:10:38.390Z,6.30
2022-08-20T03:13:23.565Z,8.00
2022-08-20T03:16:09.320Z,5.85
2022-08-20T03:18:54.219Z,5.22
2022-08-20T03:21:39.497Z,8.27
2022-08-20T03:24:24.798Z,10.18
2022-08-20T03:27:09.795Z,5.95
2022-08-20T03:29:57.130Z,6.78
2022-08-20T03:32:43.138Z,9.93
2022-08-20T03:35:29.897Z,9.25
2022-08-20T03:38:16.944Z,10.75
2022-08-20T03:41:05.941Z,5.65
2022-08-20T03:43:51.141Z,9.73
2022-08-20T03:46:36.401Z,8.00
2022-08-20T03:49:23.934Z,6.97
2022-08-20T03:52:09.018Z,4.40
2022-08-20T03:54:54.249Z,10.75
2022-08-20T03:57:48.059Z,7.15
2022-08-20T04:00:47.248Z,6.57
2022-08-20T04:03:32.874Z,7.60
2022-08-20T04:06:18.286Z,4.60
2022-08-20T04:09:03.991Z,13.13
2022-08-20T04:11:49.772Z,5.43
2022-08-20T04:14:36.272Z,7.03
2022-08-20T04:17:22.834Z,3.72
2022-08-20T04:20:11.046Z,5.68
2022-08-20T04:22:59.384Z,9.57
2022-08-20T04:25:46.334Z,8.95
2022-08-20T04:28:31.410Z,6.00
2022-08-20T04:31:17.786Z,5.05
2022-08-20T04:34:07.934Z,5.80
2022-08-20T04:36:53.030Z,5.03
2022-08-20T04:39:38.099Z,4.18
2022-08-20T04:42:23.384Z,5.55
2022-08-20T04:45:09.095Z,10.23
2022-08-20T04:47:54.165Z,4.57
2022-08-20T04:50:43.324Z,6.18
2022-08-20T04:53:28.989Z,5.10
2022-08-20T04:56:13.934Z,13.75
2022-08-20T04:59:01.515Z,5.50
2022-08-20T05:01:47.266Z,5.60
2022-08-20T05:04:32.241Z,5.65
2022-08-20T05:07:19.042Z,6.20
2022-08-20T05:10:05.390Z,4.95
2022-08-20T05:12:57.031Z,4.18
2022-08-20T05:15:42.589Z,6.82
2022-08-20T05:18:33.385Z,4.13
2022-08-20T05:21:18.718Z,8.10
2022-08-20T05:24:05.188Z,7.88
2022-08-20T05:26:50.325Z,6.97
2022-08-20T05:29:35.677Z,10.13
2022-08-20T05:32:21.298Z,6.93
2022-08-20T05:35:10.293Z,8.32
2022-08-20T05:37:55.888Z,10.25
2022-08-20T05:40:42.424Z,7.70
2022-08-20T05:43:27.258Z,7.60
2022-08-20T05:46:13.321Z,5.75
2022-08-20T05:48:59.676Z,7.90
2022-08-20T05:51:45.714Z,8.10
2022-08-20T05:54:31.931Z,8.27
2022-08-20T05:57:19.269Z,5.43
2022-08-20T06:00:07.182Z,6.35
2022-08-20T06:03:10.597Z,4.90
2022-08-20T06:05:55.858Z,7.38
2022-08-20T06:08:41.466Z,11.48
2022-08-20T06:11:27.293Z,5.47
2022-08-20T06:14:12.690Z,5.28
2022-08-20T06:17:10.781Z,6.78
2022-08-20T06:19:58.451Z,5.22
2022-08-20T06:22:43.506Z,8.32
2022-08-20T06:25:29.545Z,7.07
2022-08-20T06:28:14.737Z,9.63
2022-08-20T06:31:00.374Z,9.35
2022-08-20T06:33:45.913Z,7.25
2022-08-20T06:36:31.130Z,11.70
2022-08-20T06:39:17.010Z,10.93
2022-08-20T06:42:02.291Z,16.67
2022-08-20T06:44:50.282Z,9.18
2022-08-20T06:47:40.354Z,6.47
2022-08-20T06:50:43.248Z,8.88
2022-08-20T06:53:32.694Z,8.27
2022-08-20T06:56:17.901Z,7.03
2022-08-20T06:59:03.241Z,5.82
2022-08-20T07:01:51.118Z,10.93
2022-08-20T07:04:37.081Z,10.27
2022-08-20T07:07:23.172Z,6.38
2022-08-20T07:10:12.124Z,9.70
2022-08-20T07:13:00.141Z,10.90
2022-08-20T07:15:45.879Z,8.80
2022-08-20T07:18:32.516Z,7.43
2022-08-20T07:21:17.792Z,7.35
2022-08-20T07:24:03.844Z,7.80
2022-08-20T07:26:52.044Z,10.18
2022-08-20T07:30:00.588Z,11.60
2022-08-20T07:32:46.405Z,8.57
2022-08-20T07:35:33.676Z,9.02
2022-08-20T07:38:25.259Z,6.15
2022-08-20T07:41:13.488Z,11.50
2022-08-20T07:43:58.484Z,9.43
2022-08-20T07:46:43.868Z,7.72
2022-08-20T07:49:28.736Z,10.65
2022-08-20T07:52:14.102Z,6.53
2022-08-20T07:54:59.052Z,7.70
2022-08-20T07:57:46.785Z,9.30
2022-08-20T08:00:32.313Z,10.43
2022-08-20T08:03:18.041Z,10.05
2022-08-20T08:06:03.226Z,10.02
2022-08-20T08:08:48.327Z,7.85
2022-08-20T08:11:35.340Z,9.30
2022-08-20T08:14:26.711Z,14.20
2022-08-20T08:17:13.294Z,8.45
2022-08-20T08:19:58.605Z,9.98
2022-08-20T08:22:44.127Z,11.45
2022-08-20T08:25:29.881Z,8.63
2022-08-20T08:28:14.873Z,9.27
2022-08-20T08:31:00.083Z,12.77
2022-08-20T08:33:47.605Z,7.65
2022-08-20T08:36:32.709Z,9.43
2022-08-20T08:39:18.549Z,14.15
2022-08-20T08:42:22.565Z,11.88
2022-08-20T08:45:10.674Z,7.75
2022-08-20T08:47:57.020Z,10.82
2022-08-20T08:50:53.951Z,6.30
2022-08-20T08:53:54.751Z,11.32
2022-08-20T08:56:40.272Z,6.32
2022-08-20T08:59:52.376Z,5.03
2022-08-20T09:02:38.839Z,10.32
2022-08-20T09:05:31.759Z,5.90
2022-08-20T09:08:22.311Z,6.90
2022-08-20T09:11:08.696Z,4.50
2022-08-20T09:13:54.310Z,6.90
2022-08-20T09:16:52.371Z,4.95
2022-08-20T09:19:38.510Z,5.22
2022-08-20T09:22:27.502Z,5.55
2022-08-20T09:25:12.670Z,6.10
2022-08-20T09:27:57.806Z,5.38
2022-08-20T09:30:43.077Z,5.32
2022-08-20T09:33:30.117Z,4.30
2022-08-20T09:36:31.636Z,3.08
2022-08-20T09:39:18.028Z,4.83
2022-08-20T09:42:13.363Z,3.20
2022-08-20T09:44:59.513Z,5.55
2022-08-20T09:47:48.747Z,12.70
2022-08-20T09:50:47.076Z,6.70
2022-08-20T09:53:33.001Z,5.00
2022-08-20T09:56:18.492Z,5.57
2022-08-20T09:59:03.560Z,2.75
2022-08-20T10:01:48.957Z,5.40
2022-08-20T10:04:34.312Z,3.20
2022-08-20T10:07:19.809Z,3.58
2022-08-20T10:10:06.705Z,7.38
2022-08-20T10:12:54.729Z,7.00
2022-08-20T10:15:41.855Z,4.25
2022-08-20T10:18:27.962Z,6.65
2022-08-20T10:21:13.292Z,4.55
2022-08-20T10:23:59.373Z,5.28
2022-08-20T10:26:44.805Z,4.30
2022-08-20T10:29:30.662Z,3.92
2022-08-20T10:32:17.112Z,7.10
2022-08-20T10:35:03.294Z,5.22
2022-08-20T10:37:48.434Z,5.43
2022-08-20T10:40:33.618Z,5.90
2022-08-20T10:43:18.766Z,3.75
2022-08-20T10:46:04.083Z,4.35
2022-08-20T10:48:49.409Z,5.28
2022-08-20T10:51:34.701Z,6.40
2022-08-20T10:54:19.811Z,7.00
2022-08-20T10:57:05.082Z,6.05
2022-08-20T10:59:51.765Z,4.32
2022-08-20T11:02:36.826Z,5.35
2022-08-20T11:05:22.177Z,3.72
2022-08-20T11:08:07.232Z,3.92
2022-08-20T11:10:53.073Z,5.13
2022-08-20T11:13:38.503Z,6.15
2022-08-20T11:16:23.660Z,4.55
2022-08-20T11:19:08.584Z,3.97
2022-08-20T11:21:53.780Z,7.32
2022-08-20T11:24:39.166Z,2.80
2022-08-20T11:27:31.847Z,10.32
2022-08-20T11:30:21.422Z,5.07
2022-08-20T11:33:06.592Z,4.07
2022-08-20T11:35:51.881Z,7.28
2022-08-20T11:38:37.007Z,3.65
2022-08-20T11:41:21.942Z,6.93
2022-08-20T11:44:20.412Z,7.93
2022-08-20T11:50:11.283Z,8.50
2022-08-20T11:52:56.214Z,6.75
2022-08-20T11:55:42.408Z,4.50
2022-08-20T11:58:27.545Z,3.85
2022-08-20T12:01:13.078Z,7.47
2022-08-20T12:03:58.012Z,4.13
2022-08-20T12:06:42.953Z,5.68
2022-08-20T12:09:28.989Z,4.60
2022-08-20T12:12:15.710Z,3.30
2022-08-20T12:15:00.947Z,5.55
2022-08-20T12:17:46.106Z,4.22
2022-08-20T12:20:31.266Z,3.97
2022-08-20T12:23:16.683Z,4.07
2022-08-20T12:26:03.272Z,5.68
2022-08-20T12:28:48.157Z,6.45
2022-08-20T12:31:33.149Z,4.63
2022-08-20T12:34:18.009Z,3.63
2022-08-20T12:37:12.817Z,5.68
2022-08-20T12:40:04.529Z,4.63
2022-08-20T12:42:50.075Z,6.07
2022-08-20T12:45:36.456Z,6.38
2022-08-20T12:48:21.621Z,4.28
2022-08-20T12:51:06.892Z,5.93
2022-08-20T12:53:52.058Z,5.10
2022-08-20T12:56:37.053Z,5.63
2022-08-20T12:59:26.103Z,7.35
2022-08-20T13:02:14.382Z,8.93
2022-08-20T13:05:06.074Z,7.30
2022-08-20T13:07:52.468Z,5.63
2022-08-20T13:10:44.196Z,5.50
2022-08-20T13:13:29.487Z,5.50
2022-08-20T13:16:14.426Z,3.20
2022-08-20T13:18:59.745Z,5.82
2022-08-20T13:21:44.938Z,4.68
2022-08-20T13:24:40.883Z,4.38
2022-08-20T13:27:26.092Z,4.88
2022-08-20T13:30:14.845Z,6.22
2022-08-20T13:32:59.860Z,9.43
2022-08-20T13:35:44.900Z,6.03
2022-08-20T13:38:31.138Z,4.80
2022-08-20T13:41:16.261Z,5.25
2022-08-20T13:44:01.499Z,10.10
2022-08-20T13:46:48.062Z,3.88
2022-08-20T13:49:34.025Z,2.97
2022-08-20T13:52:19.302Z,8.32
2022-08-20T13:55:09.450Z,9.30
2022-08-20T13:57:56.159Z,4.88
2022-08-20T14:00:41.577Z,6.97
2022-08-20T14:03:26.859Z,5.25
2022-08-20T14:06:12.239Z,6.78
2022-08-20T14:08:57.432Z,4.50
2022-08-20T14:11:42.589Z,6.78
2022-08-20T14:14:27.430Z,5.15
2022-08-20T14:17:17.193Z,6.68
2022-08-20T14:20:12.058Z,5.50
2022-08-20T14:22:58.229Z,6.93
2022-08-20T14:25:46.598Z,9.73
2022-08-20T14:28:31.741Z,6.20
2022-08-20T14:31:16.912Z,9.10
2022-08-20T14:34:02.098Z,7.00
2022-08-20T14:36:47.193Z,8.77
2022-08-20T14:39:34.872Z,7.03
2022-08-20T14:42:22.770Z,5.10
2022-08-20T14:45:10.037Z,6.15
2022-08-20T14:47:57.678Z,7.55
2022-08-20T14:50:42.636Z,9.30
2022-08-20T14:53:27.712Z,5.28
2022-08-20T14:56:12.588Z,7.55
2022-08-20T14:58:57.556Z,5.63
2022-08-20T15:01:42.406Z,4.38
2022-08-20T15:04:27.434Z,5.20
2022-08-20T15:07:23.676Z,9.95
2022-08-20T15:10:12.834Z,6.40
2022-08-20T15:12:59.604Z,4.10
2022-08-20T15:15:44.920Z,4.38
2022-08-20T15:18:30.510Z,6.65
2022-08-20T15:21:19.022Z,8.23
2022-08-20T15:24:06.758Z,9.50
2022-08-20T15:27:17.097Z,6.55
2022-08-20T15:30:09.797Z,9.52
2022-08-20T15:32:56.073Z,8.75
2022-08-20T15:35:42.409Z,11.02
2022-08-20T15:38:27.706Z,9.32
2022-08-20T15:41:13.163Z,8.13
2022-08-20T15:43:58.281Z,6.53
2022-08-20T15:46:43.375Z,6.15
2022-08-20T15:49:28.329Z,10.02
2022-08-20T15:52:13.966Z,8.73
2022-08-20T15:55:01.752Z,9.48
2022-08-20T15:57:59.799Z,10.07
2022-08-20T16:00:54.036Z,8.13
2022-08-20T16:04:01.384Z,11.65
2022-08-20T16:06:50.169Z,11.15
2022-08-20T16:09:46.378Z,11.13
2022-08-20T16:12:41.576Z,5.93
2022-08-20T16:15:35.788Z,10.50
2022-08-20T16:18:28.031Z,10.77
2022-08-20T16:21:16.993Z,12.93
2022-08-20T16:24:02.866Z,10.25
2022-08-20T16:27:01.301Z,6.35
2022-08-20T16:29:55.197Z,13.57
2022-08-20T16:32:44.668Z,9.85
2022-08-20T16:35:41.988Z,10.13
2022-08-20T16:38:58.444Z,8.88
2022-08-20T16:41:45.726Z,6.53
2022-08-20T16:44:35.274Z,6.38
2022-08-20T16:50:13.385Z,10.35
2022-08-20T16:52:58.873Z,8.13
2022-08-20T16:55:44.010Z,7.57
2022-08-20T16:58:29.268Z,10.60
2022-08-20T17:01:15.252Z,7.40
2022-08-20T17:04:00.867Z,8.32
2022-08-20T17:06:48.681Z,9.05
2022-08-20T17:09:42.929Z,14.80
2022-08-20T17:12:29.088Z,13.38
2022-08-20T17:15:20.545Z,10.18
2022-08-20T17:18:37.542Z,7.22
2022-08-20T17:21:28.097Z,14.48
2022-08-20T17:24:30.228Z,9.70
2022-08-20T17:27:27.932Z,14.73
2022-08-20T17:30:26.185Z,12.07
2022-08-20T17:33:28.732Z,10.98
2022-08-20T17:36:22.374Z,5.43
2022-08-20T17:39:18.138Z,9.25
2022-08-20T17:42:17.437Z,7.47
2022-08-20T17:45:30.889Z,5.47
2022-08-20T17:48:21.645Z,9.60
2022-08-20T17:51:15.807Z,5.38
2022-08-20T17:54:15.768Z,6.32
2022-08-20T17:57:06.102Z,7.75
2022-08-20T18:00:08.530Z,4.68
2022-08-20T18:03:01.822Z,5.05
2022-08-20T18:05:57.420Z,11.15
2022-08-20T18:09:02.787Z,9.57
2022-08-20T18:11:56.910Z,7.53
2022-08-20T18:14:52.105Z,8.35
2022-08-20T18:18:14.522Z,6.93
2022-08-20T18:21:45.699Z,10.15
2022-08-20T18:24:40.209Z,7.75
2022-08-20T18:27:28.142Z,11.77
2022-08-20T18:30:19.866Z,6.55
2022-08-20T18:33:08.457Z,8.55
2022-08-20T18:36:23.804Z,7.38
2022-08-20T18:39:23.492Z,6.55
2022-08-20T18:42:30.883Z,7.75
2022-08-20T18:45:31.456Z,9.48
2022-08-20T18:48:25.286Z,12.10
2022-08-20T18:51:12.421Z,10.25
2022-08-20T18:53:57.600Z,9.43
2022-08-20T18:56:43.079Z,10.50
2022-08-20T18:59:32.141Z,12.20
2022-08-20T19:02:34.860Z,10.90
2022-08-20T19:05:31.634Z,9.80
2022-08-20T19:08:33.489Z,12.27
2022-08-20T19:11:33.020Z,8.77
2022-08-20T19:14:20.879Z,9.63
2022-08-20T19:17:11.329Z,7.85
2022-08-20T19:20:01.659Z,8.27
2022-08-20T19:22:50.002Z,11.25
2022-08-20T19:25:49.268Z,9.23
2022-08-20T19:28:45.146Z,8.32
2022-08-20T19:31:33.109Z,9.10
2022-08-20T19:34:24.122Z,9.02
2022-08-20T19:37:34.950Z,10.43
2022-08-20T19:40:30.900Z,14.98
2022-08-20T19:43:18.943Z,15.52
2022-08-20T19:46:03.975Z,13.10
2022-08-20T19:49:15.213Z,9.02
2022-08-20T19:52:28.423Z,13.38
2022-08-20T19:55:21.668Z,15.98
2022-08-20T19:58:16.795Z,12.23
2022-08-20T20:01:19.168Z,12.18
2022-08-20T20:04:16.503Z,16.65
2022-08-20T20:07:02.729Z,18.90
2022-08-20T20:09:51.351Z,11.48
2022-08-20T20:12:38.562Z,11.75
2022-08-20T20:15:24.325Z,14.30
2022-08-20T20:18:10.313Z,21.05
2022-08-20T20:21:09.263Z,10.35
2022-08-20T20:23:58.032Z,13.00
2022-08-20T20:26:47.658Z,9.65
2022-08-20T20:29:37.436Z,13.93
2022-08-20T20:35:10.242Z,15.50
2022-08-20T20:38:06.374Z,13.95
2022-08-20T20:40:55.305Z,17.92
2022-08-20T20:43:42.773Z,9.00
2022-08-20T20:46:30.858Z,13.43
2022-08-20T20:49:23.509Z,14.18
2022-08-20T20:52:21.253Z,9.93
2022-08-20T20:55:11.699Z,9.73
2022-08-20T20:57:57.225Z,12.77
2022-08-20T21:00:43.518Z,10.93
2022-08-20T21:03:28.715Z,14.50
2022-08-20T21:06:13.985Z,11.48
2022-08-20T21:08:59.290Z,16.50
2022-08-20T21:11:44.704Z,12.40
2022-08-20T21:14:30.091Z,10.80
2022-08-20T21:17:21.047Z,14.65
2022-08-20T21:20:08.224Z,15.40
2022-08-20T21:22:53.055Z,9.20
2022-08-20T21:25:38.405Z,16.13
2022-08-20T21:28:23.535Z,13.32
2022-08-20T21:31:13.784Z,12.45
2022-08-20T21:33:59.189Z,15.10
2022-08-20T21:36:44.513Z,13.90
2022-08-20T21:39:29.844Z,12.57
2022-08-20T21:42:28.938Z,13.65
2022-08-20T21:45:18.495Z,20.13
2022-08-20T21:48:05.335Z,15.57
2022-08-20T21:50:50.291Z,15.45
2022-08-20T21:53:35.357Z,10.32
2022-08-20T21:56:20.785Z,19.25
2022-08-20T21:59:09.546Z,13.63
2022-08-20T22:01:55.185Z,14.30
2022-08-20T22:04:41.036Z,9.73
2022-08-20T22:07:26.171Z,19.33
2022-08-20T22:10:12.801Z,13.10
2022-08-20T22:12:58.326Z,10.38
2022-08-20T22:15:43.598Z,20.08
2022-08-20T22:18:28.921Z,14.40
2022-08-20T22:21:18.408Z,14.32
2022-08-20T22:24:07.845Z,15.05
2022-08-20T22:26:52.805Z,10.48
2022-08-20T22:29:37.946Z,12.80
2022-08-20T22:32:30.804Z,13.98
2022-08-20T22:35:29.803Z,14.05
2022-08-20T22:38:15.772Z,11.35
2022-08-20T22:41:01.223Z,16.55
2022-08-20T22:43:56.754Z,16.73
2022-08-20T22:46:47.379Z,10.02
2022-08-20T22:49:36.817Z,13.85
2022-08-20T22:52:23.690Z,16.88
2022-08-20T22:55:12.593Z,15.13
2022-08-20T22:57:57.853Z,13.82
2022-08-20T23:00:44.760Z,14.48
2022-08-20T23:03:39.584Z,20.52
2022-08-20T23:06:28.626Z,12.77
2022-08-20T23:09:13.819Z,15.40
2022-08-20T23:11:59.184Z,14.93
2022-08-20T23:14:44.284Z,15.05
2022-08-20T23:17:29.585Z,15.68
2022-08-20T23:20:17.798Z,11.95
2022-08-20T23:23:03.560Z,18.02
2022-08-20T23:25:49.546Z,14.68
2022-08-20T23:28:35.125Z,21.65
2022-08-20T23:31:20.258Z,10.73
2022-08-20T23:34:05.544Z,13.70
2022-08-20T23:36:52.483Z,15.23
2022-08-20T23:39:37.756Z,14.38
2022-08-20T23:42:23.149Z,10.93
2022-08-20T23:45:09.160Z,15.55
2022-08-20T23:47:54.409Z,12.52
2022-08-20T23:50:39.770Z,16.40
2022-08-20T23:53:25.078Z,16.25
2022-08-20T23:56:10.600Z,16.58
2022-08-20T23:58:55.954Z,10.60
